createdAt,value
2017-08-03T00:00:37.910Z,1012.93
2017-08-03T00:01:18.805Z,1012.9
2017-08-03T00:01:59.701Z,1012.86
2017-08-03T00:02:40.593Z,1012.81
2017-08-03T00:03:21.491Z,1012.82
2017-08-03T00:04:02.380Z,1012.79
2017-08-03T00:04:43.273Z,1012.79
2017-08-03T00:05:24.166Z,1012.77
2017-08-03T00:06:05.086Z,1012.76
2017-08-03T00:06:45.972Z,1012.73
2017-08-03T00:07:26.879Z,1012.73
2017-08-03T00:08:07.781Z,1012.7
2017-08-03T00:08:48.680Z,1012.7
2017-08-03T00:09:29.575Z,1012.71
2017-08-03T00:10:10.467Z,1012.7
2017-08-03T00:10:51.362Z,1012.75
2017-08-03T00:11:32.254Z,1012.72
2017-08-03T00:12:13.166Z,1012.76
2017-08-03T00:12:54.051Z,1012.76
2017-08-03T00:13:34.949Z,1012.78
2017-08-03T00:14:15.842Z,1012.78
2017-08-03T00:14:56.738Z,1012.8
2017-08-03T00:15:37.642Z,1012.76
2017-08-03T00:16:18.531Z,1012.75
2017-08-03T00:16:59.427Z,1012.76
2017-08-03T00:17:40.320Z,1012.76
2017-08-03T00:18:21.212Z,1012.72
2017-08-03T00:19:02.102Z,1012.73
2017-08-03T00:19:43.006Z,1012.74
2017-08-03T00:20:23.939Z,1012.72
2017-08-03T00:21:04.850Z,1012.69
2017-08-03T00:21:45.737Z,1012.69
2017-08-03T00:22:26.641Z,1012.66
2017-08-03T00:23:07.529Z,1012.66
2017-08-03T00:23:48.433Z,1012.64
2017-08-03T00:24:29.322Z,1012.59
2017-08-03T00:25:10.210Z,1012.54
2017-08-03T00:25:51.113Z,1012.54
2017-08-03T00:26:32.006Z,1012.54
2017-08-03T00:27:12.901Z,1012.49
2017-08-03T00:27:53.794Z,1012.48
2017-08-03T00:28:34.702Z,1012.51
2017-08-03T00:29:15.587Z,1012.49
2017-08-03T00:29:56.481Z,1012.45
2017-08-03T00:30:37.371Z,1012.45
2017-08-03T00:31:18.279Z,1012.45
2017-08-03T00:31:59.195Z,1012.46
2017-08-03T00:32:40.070Z,1012.45
2017-08-03T00:33:20.979Z,1012.4
2017-08-03T00:34:01.866Z,1012.4
2017-08-03T00:34:42.775Z,1012.37
2017-08-03T00:35:23.670Z,1012.36
2017-08-03T00:36:04.565Z,1012.34
2017-08-03T00:36:45.484Z,1012.34
2017-08-03T00:37:26.357Z,1012.29
2017-08-03T00:38:07.264Z,1012.31
2017-08-03T00:38:48.186Z,1012.29
2017-08-03T00:39:29.081Z,1012.3
2017-08-03T00:40:09.980Z,1012.26
2017-08-03T00:40:50.882Z,1012.23
2017-08-03T00:41:31.780Z,1012.2
2017-08-03T00:42:12.673Z,1012.23
2017-08-03T00:42:53.572Z,1012.21
2017-08-03T00:43:34.468Z,1012.19
2017-08-03T00:44:15.372Z,1012.19
2017-08-03T00:44:56.265Z,1012.15
2017-08-03T00:45:37.155Z,1012.13
2017-08-03T00:46:18.054Z,1012.1
2017-08-03T00:46:58.961Z,1012.08
2017-08-03T00:47:39.852Z,1012.1
2017-08-03T00:48:20.755Z,1012.08
2017-08-03T00:49:01.654Z,1012.08
2017-08-03T00:49:42.565Z,1012.09
2017-08-03T00:50:23.452Z,1012.07
2017-08-03T00:51:04.345Z,1012.06
2017-08-03T00:51:45.240Z,1012.02
2017-08-03T00:52:26.128Z,1011.99
2017-08-03T00:53:07.063Z,1011.99
2017-08-03T00:53:47.912Z,1012
2017-08-03T00:54:28.804Z,1011.99
2017-08-03T00:55:09.685Z,1011.98
2017-08-03T00:55:50.574Z,1012.02
2017-08-03T00:56:31.480Z,1012.01
2017-08-03T00:57:12.377Z,1012.01
2017-08-03T00:57:53.277Z,1012.04
2017-08-03T00:58:34.180Z,1012
2017-08-03T00:59:15.069Z,1012.02
2017-08-03T00:59:55.969Z,1012.03
2017-08-03T01:00:36.858Z,1012.01
2017-08-03T01:01:17.770Z,1012
2017-08-03T01:01:58.687Z,1011.96
2017-08-03T01:02:39.593Z,1011.96
2017-08-03T01:03:20.488Z,1011.97
2017-08-03T01:04:01.382Z,1011.96
2017-08-03T01:04:42.289Z,1011.96
2017-08-03T01:05:23.175Z,1011.93
2017-08-03T01:06:04.077Z,1011.94
2017-08-03T01:06:44.973Z,1011.94
2017-08-03T01:07:25.870Z,1011.93
2017-08-03T01:08:06.760Z,1011.95
2017-08-03T01:08:47.664Z,1011.91
2017-08-03T01:09:28.574Z,1011.91
2017-08-03T01:10:09.458Z,1011.91
2017-08-03T01:10:50.333Z,1011.92
2017-08-03T01:11:31.220Z,1011.91
2017-08-03T01:12:12.112Z,1011.91
2017-08-03T01:12:53.030Z,1011.94
2017-08-03T01:13:33.923Z,1011.91
2017-08-03T01:14:14.823Z,1011.94
2017-08-03T01:14:55.718Z,1011.95
2017-08-03T01:15:36.618Z,1011.95
2017-08-03T01:16:17.507Z,1011.93
2017-08-03T01:16:58.414Z,1011.93
2017-08-03T01:17:39.300Z,1011.89
2017-08-03T01:18:20.183Z,1011.92
2017-08-03T01:19:01.094Z,1011.89
2017-08-03T01:19:41.986Z,1011.91
2017-08-03T01:20:22.886Z,1011.89
2017-08-03T01:21:03.802Z,1011.89
2017-08-03T01:21:44.695Z,1011.89
2017-08-03T01:22:25.587Z,1011.88
2017-08-03T01:23:06.491Z,1011.86
2017-08-03T01:23:47.370Z,1011.85
2017-08-03T01:24:28.263Z,1011.85
2017-08-03T01:25:09.175Z,1011.84
2017-08-03T01:25:50.058Z,1011.82
2017-08-03T01:26:30.969Z,1011.78
2017-08-03T01:27:11.870Z,1011.79
2017-08-03T01:27:52.759Z,1011.78
2017-08-03T01:28:33.656Z,1011.74
2017-08-03T01:29:14.552Z,1011.74
2017-08-03T01:29:55.448Z,1011.72
2017-08-03T01:30:36.333Z,1011.72
2017-08-03T01:31:17.230Z,1011.72
2017-08-03T01:31:58.127Z,1011.68
2017-08-03T01:32:39.020Z,1011.73
2017-08-03T01:33:19.908Z,1011.71
2017-08-03T01:34:00.808Z,1011.72
2017-08-03T01:34:41.700Z,1011.71
2017-08-03T01:35:22.595Z,1011.71
2017-08-03T01:36:03.492Z,1011.73
2017-08-03T01:36:44.391Z,1011.7
2017-08-03T01:37:25.314Z,1011.7
2017-08-03T01:38:06.195Z,1011.7
2017-08-03T01:38:47.098Z,1011.73
2017-08-03T01:39:27.996Z,1011.71
2017-08-03T01:40:08.893Z,1011.73
2017-08-03T01:40:49.790Z,1011.75
2017-08-03T01:41:30.687Z,1011.75
2017-08-03T01:42:11.581Z,1011.76
2017-08-03T01:42:52.488Z,1011.78
2017-08-03T01:43:33.378Z,1011.77
2017-08-03T01:44:14.282Z,1011.77
2017-08-03T01:44:55.174Z,1011.73
2017-08-03T01:45:36.068Z,1011.76
2017-08-03T01:46:16.971Z,1011.75
2017-08-03T01:46:57.862Z,1011.74
2017-08-03T01:47:38.758Z,1011.74
2017-08-03T01:48:19.654Z,1011.76
2017-08-03T01:49:00.549Z,1011.78
2017-08-03T01:49:41.449Z,1011.78
2017-08-03T01:50:22.341Z,1011.81
2017-08-03T01:51:03.269Z,1011.83
2017-08-03T01:51:44.160Z,1011.85
2017-08-03T01:52:25.056Z,1011.86
2017-08-03T01:53:05.946Z,1011.86
2017-08-03T01:53:46.844Z,1011.83
2017-08-03T01:54:27.741Z,1011.83
2017-08-03T01:55:08.646Z,1011.85
2017-08-03T01:55:49.578Z,1011.89
2017-08-03T01:56:30.477Z,1011.84
2017-08-03T01:57:11.374Z,1011.86
2017-08-03T01:57:52.279Z,1011.84
2017-08-03T01:58:33.192Z,1011.86
2017-08-03T01:59:14.081Z,1011.81
2017-08-03T01:59:54.979Z,1011.8
2017-08-03T02:00:35.880Z,1011.77
2017-08-03T02:01:16.773Z,1011.78
2017-08-03T02:01:57.669Z,1011.78
2017-08-03T02:02:38.590Z,1011.8
2017-08-03T02:03:19.484Z,1011.8
2017-08-03T02:04:00.378Z,1011.81
2017-08-03T02:04:41.275Z,1011.84
2017-08-03T02:05:22.173Z,1011.79
2017-08-03T02:06:03.069Z,1011.76
2017-08-03T02:06:43.965Z,1011.78
2017-08-03T02:07:24.860Z,1011.76
2017-08-03T02:08:05.765Z,1011.74
2017-08-03T02:08:46.661Z,1011.74
2017-08-03T02:09:27.558Z,1011.78
2017-08-03T02:10:08.459Z,1011.83
2017-08-03T02:10:49.342Z,1011.83
2017-08-03T02:11:30.240Z,1011.82
2017-08-03T02:12:11.133Z,1011.79
2017-08-03T02:12:52.032Z,1011.69
2017-08-03T02:13:32.941Z,1011.66
2017-08-03T02:14:13.834Z,1011.66
2017-08-03T02:14:54.746Z,1011.67
2017-08-03T02:15:35.621Z,1011.68
2017-08-03T02:16:16.512Z,1011.71
2017-08-03T02:16:57.399Z,1011.74
2017-08-03T02:17:38.302Z,1011.76
2017-08-03T02:18:19.200Z,1011.72
2017-08-03T02:19:00.088Z,1011.69
2017-08-03T02:19:40.979Z,1011.69
2017-08-03T02:20:21.868Z,1011.69
2017-08-03T02:21:02.741Z,1011.65
2017-08-03T02:21:43.638Z,1011.62
2017-08-03T02:22:24.552Z,1011.58
2017-08-03T02:23:05.440Z,1011.58
2017-08-03T02:23:46.341Z,1011.54
2017-08-03T02:24:27.224Z,1011.56
2017-08-03T02:25:08.117Z,1011.55
2017-08-03T02:25:48.999Z,1011.62
2017-08-03T02:26:29.896Z,1011.61
2017-08-03T02:27:10.789Z,1011.66
2017-08-03T02:27:51.686Z,1011.66
2017-08-03T02:28:32.579Z,1011.62
2017-08-03T02:29:13.488Z,1011.57
2017-08-03T02:29:54.392Z,1011.6
2017-08-03T02:30:35.283Z,1011.58
2017-08-03T02:31:16.172Z,1011.61
2017-08-03T02:31:57.066Z,1011.63
2017-08-03T02:32:37.967Z,1011.66
2017-08-03T02:33:18.857Z,1011.68
2017-08-03T02:33:59.751Z,1011.65
2017-08-03T02:34:40.657Z,1011.62
2017-08-03T02:35:21.541Z,1011.61
2017-08-03T02:36:02.442Z,1011.58
2017-08-03T02:36:43.342Z,1011.57
2017-08-03T02:37:24.243Z,1011.55
2017-08-03T02:38:05.139Z,1011.55
2017-08-03T02:38:46.041Z,1011.5
2017-08-03T02:39:26.944Z,1011.53
2017-08-03T02:40:07.807Z,1011.52
2017-08-03T02:40:48.705Z,1011.5
2017-08-03T02:41:29.612Z,1011.53
2017-08-03T02:42:10.500Z,1011.52
2017-08-03T02:42:51.406Z,1011.51
2017-08-03T02:43:32.296Z,1011.58
2017-08-03T02:44:13.198Z,1011.55
2017-08-03T02:44:54.092Z,1011.56
2017-08-03T02:45:34.991Z,1011.55
2017-08-03T02:46:15.900Z,1011.54
2017-08-03T02:46:56.794Z,1011.53
2017-08-03T02:47:37.679Z,1011.54
2017-08-03T02:48:18.573Z,1011.55
2017-08-03T02:48:59.464Z,1011.52
2017-08-03T02:49:40.371Z,1011.53
2017-08-03T02:50:21.273Z,1011.53
2017-08-03T02:51:02.163Z,1011.51
2017-08-03T02:51:43.062Z,1011.47
2017-08-03T02:52:23.959Z,1011.51
2017-08-03T02:53:04.850Z,1011.51
2017-08-03T02:53:45.749Z,1011.46
2017-08-03T02:54:26.638Z,1011.51
2017-08-03T02:55:07.532Z,1011.48
2017-08-03T02:55:48.414Z,1011.5
2017-08-03T02:56:29.313Z,1011.49
2017-08-03T02:57:10.211Z,1011.48
2017-08-03T02:57:51.106Z,1011.49
2017-08-03T02:58:31.989Z,1011.47
2017-08-03T02:59:12.895Z,1011.43
2017-08-03T02:59:53.780Z,1011.4
2017-08-03T03:00:34.661Z,1011.4
2017-08-03T03:01:15.566Z,1011.41
2017-08-03T03:01:56.456Z,1011.33
2017-08-03T03:02:37.342Z,1011.34
2017-08-03T03:03:18.238Z,1011.35
2017-08-03T03:03:59.129Z,1011.29
2017-08-03T03:04:40.017Z,1011.32
2017-08-03T03:05:20.921Z,1011.31
2017-08-03T03:06:01.823Z,1011.32
2017-08-03T03:06:42.780Z,1011.34
2017-08-03T03:07:23.675Z,1011.34
2017-08-03T03:08:04.573Z,1011.35
2017-08-03T03:08:45.461Z,1011.29
2017-08-03T03:09:26.373Z,1011.31
2017-08-03T03:10:07.279Z,1011.37
2017-08-03T03:10:48.181Z,1011.38
2017-08-03T03:11:29.062Z,1011.42
2017-08-03T03:12:09.948Z,1011.45
2017-08-03T03:12:50.832Z,1011.46
2017-08-03T03:13:31.724Z,1011.46
2017-08-03T03:14:12.619Z,1011.43
2017-08-03T03:14:53.507Z,1011.44
2017-08-03T03:15:34.426Z,1011.44
2017-08-03T03:16:15.332Z,1011.45
2017-08-03T03:16:56.237Z,1011.45
2017-08-03T03:17:37.135Z,1011.47
2017-08-03T03:18:18.026Z,1011.43
2017-08-03T03:18:58.916Z,1011.43
2017-08-03T03:19:39.803Z,1011.42
2017-08-03T03:20:20.712Z,1011.43
2017-08-03T03:21:01.608Z,1011.45
2017-08-03T03:21:42.494Z,1011.45
2017-08-03T03:22:23.389Z,1011.45
2017-08-03T03:23:04.279Z,1011.46
2017-08-03T03:23:45.178Z,1011.4
2017-08-03T03:24:26.097Z,1011.37
2017-08-03T03:25:06.985Z,1011.34
2017-08-03T03:25:47.881Z,1011.27
2017-08-03T03:26:28.774Z,1011.22
2017-08-03T03:27:09.666Z,1011.17
2017-08-03T03:27:50.563Z,1011.16
2017-08-03T03:28:31.566Z,1011.13
2017-08-03T03:29:12.343Z,1011.18
2017-08-03T03:29:53.231Z,1011.17
2017-08-03T03:30:34.135Z,1011.18
2017-08-03T03:31:15.029Z,1011.19
2017-08-03T03:31:55.933Z,1011.24
2017-08-03T03:32:36.825Z,1011.22
2017-08-03T03:33:17.724Z,1011.26
2017-08-03T03:33:58.613Z,1011.26
2017-08-03T03:34:39.511Z,1011.27
2017-08-03T03:35:20.430Z,1011.29
2017-08-03T03:36:01.341Z,1011.29
2017-08-03T03:36:42.236Z,1011.28
2017-08-03T03:37:23.125Z,1011.26
2017-08-03T03:38:04.029Z,1011.29
2017-08-03T03:38:44.919Z,1011.27
2017-08-03T03:39:25.809Z,1011.29
2017-08-03T03:40:06.703Z,1011.3
2017-08-03T03:40:47.601Z,1011.3
2017-08-03T03:41:28.475Z,1011.34
2017-08-03T03:42:09.375Z,1011.39
2017-08-03T03:42:50.271Z,1011.39
2017-08-03T03:43:31.164Z,1011.36
2017-08-03T03:44:12.056Z,1011.34
2017-08-03T03:44:52.948Z,1011.3
2017-08-03T03:45:33.869Z,1011.27
2017-08-03T03:46:14.758Z,1011.27
2017-08-03T03:46:55.656Z,1011.27
2017-08-03T03:47:36.557Z,1011.23
2017-08-03T03:48:17.451Z,1011.27
2017-08-03T03:48:58.341Z,1011.28
2017-08-03T03:49:39.248Z,1011.24
2017-08-03T03:50:20.136Z,1011.27
2017-08-03T03:51:01.021Z,1011.26
2017-08-03T03:51:41.921Z,1011.28
2017-08-03T03:52:22.811Z,1011.26
2017-08-03T03:53:03.706Z,1011.26
2017-08-03T03:53:44.598Z,1011.29
2017-08-03T03:54:25.490Z,1011.28
2017-08-03T03:55:06.378Z,1011.3
2017-08-03T03:55:47.283Z,1011.24
2017-08-03T03:56:28.168Z,1011.31
2017-08-03T03:57:09.066Z,1011.29
2017-08-03T03:57:49.968Z,1011.31
2017-08-03T03:58:30.862Z,1011.3
2017-08-03T03:59:11.766Z,1011.25
2017-08-03T03:59:52.667Z,1011.26
2017-08-03T04:00:33.557Z,1011.21
2017-08-03T04:01:14.452Z,1011.2
2017-08-03T04:01:55.340Z,1011.17
2017-08-03T04:02:36.224Z,1011.14
2017-08-03T04:03:17.138Z,1011.1
2017-08-03T04:03:58.036Z,1011.04
2017-08-03T04:04:38.945Z,1011.08
2017-08-03T04:05:19.832Z,1011.01
2017-08-03T04:06:00.739Z,1010.99
2017-08-03T04:06:41.626Z,1010.96
2017-08-03T04:07:22.575Z,1010.93
2017-08-03T04:08:03.475Z,1010.91
2017-08-03T04:08:44.346Z,1010.93
2017-08-03T04:09:25.237Z,1010.91
2017-08-03T04:10:06.157Z,1010.88
2017-08-03T04:10:47.019Z,1010.9
2017-08-03T04:11:27.912Z,1010.84
2017-08-03T04:12:08.812Z,1010.82
2017-08-03T04:12:49.679Z,1010.75
2017-08-03T04:13:30.588Z,1010.72
2017-08-03T04:14:11.488Z,1010.69
2017-08-03T04:14:52.375Z,1010.71
2017-08-03T04:15:33.261Z,1010.7
2017-08-03T04:16:14.174Z,1010.74
2017-08-03T04:16:55.058Z,1010.8
2017-08-03T04:17:35.955Z,1010.85
2017-08-03T04:18:16.852Z,1010.92
2017-08-03T04:18:57.743Z,1010.92
2017-08-03T04:19:38.658Z,1010.94
2017-08-03T04:20:19.541Z,1010.93
2017-08-03T04:21:00.433Z,1010.97
2017-08-03T04:21:41.334Z,1010.93
2017-08-03T04:22:22.228Z,1010.93
2017-08-03T04:23:03.125Z,1010.92
2017-08-03T04:23:44.014Z,1010.92
2017-08-03T04:24:24.910Z,1010.9
2017-08-03T04:25:05.818Z,1010.9
2017-08-03T04:25:46.746Z,1010.94
2017-08-03T04:26:27.656Z,1010.96
2017-08-03T04:27:08.562Z,1010.95
2017-08-03T04:27:49.464Z,1010.97
2017-08-03T04:28:30.349Z,1011.01
2017-08-03T04:29:11.264Z,1011.02
2017-08-03T04:29:52.149Z,1011.03
2017-08-03T04:30:33.048Z,1011.04
2017-08-03T04:31:13.942Z,1011.03
2017-08-03T04:31:54.837Z,1011.04
2017-08-03T04:32:35.735Z,1011.02
2017-08-03T04:33:16.650Z,1010.99
2017-08-03T04:33:57.544Z,1011.01
2017-08-03T04:34:38.447Z,1010.99
2017-08-03T04:36:16.913Z,1011.04
2017-08-03T04:36:57.818Z,1011.03
2017-08-03T04:37:38.706Z,1011.05
2017-08-03T04:38:19.612Z,1011.03
2017-08-03T04:39:00.500Z,1011.05
2017-08-03T04:39:41.399Z,1011.04
2017-08-03T04:40:22.299Z,1011.02
2017-08-03T04:41:03.179Z,1011
2017-08-03T04:41:44.074Z,1010.98
2017-08-03T04:42:24.966Z,1010.98
2017-08-03T04:43:05.852Z,1010.93
2017-08-03T04:43:46.765Z,1010.98
2017-08-03T04:44:27.675Z,1010.96
2017-08-03T04:45:08.578Z,1010.96
2017-08-03T04:45:49.492Z,1010.9
2017-08-03T04:46:30.346Z,1010.86
2017-08-03T04:47:11.258Z,1010.82
2017-08-03T04:47:52.154Z,1010.78
2017-08-03T04:48:33.039Z,1010.72
2017-08-03T04:49:13.925Z,1010.74
2017-08-03T04:49:54.817Z,1010.75
2017-08-03T04:50:35.708Z,1010.78
2017-08-03T04:51:16.597Z,1010.8
2017-08-03T04:51:57.496Z,1010.83
2017-08-03T04:52:38.381Z,1010.83
2017-08-03T04:53:19.274Z,1010.81
2017-08-03T04:54:00.165Z,1010.82
2017-08-03T04:54:41.054Z,1010.77
2017-08-03T04:55:21.935Z,1010.74
2017-08-03T04:56:02.841Z,1010.68
2017-08-03T04:56:43.727Z,1010.68
2017-08-03T04:57:24.601Z,1010.67
2017-08-03T04:58:05.502Z,1010.64
2017-08-03T04:58:46.409Z,1010.65
2017-08-03T04:59:27.289Z,1010.66
2017-08-03T05:00:08.200Z,1010.71
2017-08-03T05:00:49.088Z,1010.71
2017-08-03T05:01:29.996Z,1010.66
2017-08-03T05:02:10.945Z,1010.69
2017-08-03T05:02:51.842Z,1010.65
2017-08-03T05:03:32.743Z,1010.59
2017-08-03T05:04:13.663Z,1010.62
2017-08-03T05:04:54.559Z,1010.55
2017-08-03T05:05:35.466Z,1010.58
2017-08-03T05:06:16.365Z,1010.51
2017-08-03T05:06:57.270Z,1010.52
2017-08-03T05:07:38.161Z,1010.56
2017-08-03T05:08:19.057Z,1010.54
2017-08-03T05:08:59.964Z,1010.52
2017-08-03T05:09:40.855Z,1010.5
2017-08-03T05:10:21.769Z,1010.54
2017-08-03T05:11:02.672Z,1010.46
2017-08-03T05:11:43.557Z,1010.4
2017-08-03T05:12:24.452Z,1010.38
2017-08-03T05:13:05.352Z,1010.35
2017-08-03T05:13:46.233Z,1010.32
2017-08-03T05:14:27.127Z,1010.36
2017-08-03T05:15:08.024Z,1010.34
2017-08-03T05:15:48.913Z,1010.36
2017-08-03T05:16:29.834Z,1010.36
2017-08-03T05:17:10.714Z,1010.34
2017-08-03T05:17:51.606Z,1010.38
2017-08-03T05:18:32.495Z,1010.43
2017-08-03T05:19:13.381Z,1010.45
2017-08-03T05:19:54.290Z,1010.46
2017-08-03T05:20:35.188Z,1010.46
2017-08-03T05:21:16.069Z,1010.46
2017-08-03T05:21:56.961Z,1010.45
2017-08-03T05:22:37.856Z,1010.48
2017-08-03T05:23:18.748Z,1010.46
2017-08-03T05:23:59.654Z,1010.46
2017-08-03T05:24:40.544Z,1010.5
2017-08-03T05:25:21.435Z,1010.5
2017-08-03T05:26:02.341Z,1010.53
2017-08-03T05:26:43.214Z,1010.53
2017-08-03T05:27:24.108Z,1010.54
2017-08-03T05:28:05.021Z,1010.53
2017-08-03T05:28:45.889Z,1010.5
2017-08-03T05:29:26.773Z,1010.5
2017-08-03T05:30:07.695Z,1010.49
2017-08-03T05:30:48.579Z,1010.51
2017-08-03T05:31:29.477Z,1010.54
2017-08-03T05:32:10.368Z,1010.51
2017-08-03T05:32:51.258Z,1010.51
2017-08-03T05:33:32.151Z,1010.54
2017-08-03T05:34:13.064Z,1010.48
2017-08-03T05:34:53.955Z,1010.45
2017-08-03T05:35:34.862Z,1010.45
2017-08-03T05:36:15.737Z,1010.49
2017-08-03T05:36:56.617Z,1010.48
2017-08-03T05:37:37.507Z,1010.53
2017-08-03T05:38:18.398Z,1010.58
2017-08-03T05:38:59.298Z,1010.56
2017-08-03T05:39:40.193Z,1010.52
2017-08-03T05:40:21.093Z,1010.54
2017-08-03T05:41:01.980Z,1010.5
2017-08-03T05:41:42.883Z,1010.52
2017-08-03T05:42:23.770Z,1010.44
2017-08-03T05:43:04.663Z,1010.43
2017-08-03T05:43:45.558Z,1010.32
2017-08-03T05:44:26.474Z,1010.3
2017-08-03T05:45:07.359Z,1010.23
2017-08-03T05:45:48.258Z,1010.21
2017-08-03T05:46:29.146Z,1010.21
2017-08-03T05:48:38.172Z,1010.32
2017-08-03T05:49:19.059Z,1010.38
2017-08-03T05:49:59.956Z,1010.35
2017-08-03T05:50:40.852Z,1010.42
2017-08-03T05:51:21.740Z,1010.43
2017-08-03T05:52:02.630Z,1010.45
2017-08-03T05:52:43.533Z,1010.44
2017-08-03T05:53:24.428Z,1010.42
2017-08-03T05:54:05.320Z,1010.38
2017-08-03T05:54:46.197Z,1010.34
2017-08-03T05:55:27.098Z,1010.31
2017-08-03T05:57:26.958Z,1010.33
2017-08-03T05:58:07.850Z,1010.33
2017-08-03T05:58:48.741Z,1010.37
2017-08-03T05:59:29.636Z,1010.36
2017-08-03T06:00:10.533Z,1010.29
2017-08-03T06:00:51.432Z,1010.28
2017-08-03T06:01:32.324Z,1010.3
2017-08-03T06:02:13.224Z,1010.23
2017-08-03T06:02:54.110Z,1010.24
2017-08-03T06:03:35.000Z,1010.28
2017-08-03T06:04:15.914Z,1010.24
2017-08-03T06:04:56.816Z,1010.26
2017-08-03T06:05:37.723Z,1010.22
2017-08-03T06:06:18.613Z,1010.24
2017-08-03T06:06:59.504Z,1010.25
2017-08-03T06:07:40.398Z,1010.25
2017-08-03T06:08:21.296Z,1010.26
2017-08-03T06:09:02.213Z,1010.26
2017-08-03T06:09:43.092Z,1010.28
2017-08-03T06:10:23.981Z,1010.25
2017-08-03T06:11:04.893Z,1010.23
2017-08-03T06:11:45.775Z,1010.18
2017-08-03T06:12:26.696Z,1010.16
2017-08-03T06:13:07.608Z,1010.19
2017-08-03T06:13:48.507Z,1010.18
2017-08-03T06:14:29.397Z,1010.24
2017-08-03T06:15:10.292Z,1010.23
2017-08-03T06:15:51.193Z,1010.16
2017-08-03T06:16:32.088Z,1010.2
2017-08-03T06:17:12.988Z,1010.14
2017-08-03T06:17:53.882Z,1010.12
2017-08-03T06:18:34.766Z,1010.11
2017-08-03T06:19:15.678Z,1010.07
2017-08-03T06:19:56.580Z,1010.02
2017-08-03T06:20:37.495Z,1009.96
2017-08-03T06:21:18.381Z,1009.96
2017-08-03T06:21:59.273Z,1009.98
2017-08-03T06:22:40.179Z,1010.02
2017-08-03T06:23:21.105Z,1010.05
2017-08-03T06:24:02.008Z,1010.15
2017-08-03T06:24:42.894Z,1010.16
2017-08-03T06:25:23.786Z,1010.17
2017-08-03T06:26:04.690Z,1010.17
2017-08-03T06:26:45.596Z,1010.19
2017-08-03T06:27:26.493Z,1010.19
2017-08-03T06:28:07.388Z,1010.18
2017-08-03T06:28:48.325Z,1010.11
2017-08-03T06:29:29.196Z,1010.1
2017-08-03T06:30:10.087Z,1010.07
2017-08-03T06:30:50.990Z,1010
2017-08-03T06:31:31.881Z,1010
2017-08-03T06:32:12.785Z,1009.96
2017-08-03T06:32:53.707Z,1009.95
2017-08-03T06:33:34.601Z,1009.92
2017-08-03T06:34:15.519Z,1009.92
2017-08-03T06:34:56.409Z,1009.89
2017-08-03T06:35:37.313Z,1009.85
2017-08-03T06:36:18.212Z,1009.85
2017-08-03T06:36:59.109Z,1009.85
2017-08-03T06:37:40.005Z,1009.79
2017-08-03T06:38:20.907Z,1009.79
2017-08-03T06:39:01.803Z,1009.8
2017-08-03T06:39:42.692Z,1009.75
2017-08-03T06:40:23.592Z,1009.8
2017-08-03T06:41:04.538Z,1009.79
2017-08-03T06:41:45.436Z,1009.81
2017-08-03T06:42:26.332Z,1009.81
2017-08-03T06:43:07.232Z,1009.8
2017-08-03T06:43:48.154Z,1009.81
2017-08-03T06:44:29.147Z,1009.83
2017-08-03T06:45:10.013Z,1009.83
2017-08-03T06:45:50.909Z,1009.84
2017-08-03T06:46:31.808Z,1009.83
2017-08-03T06:47:12.709Z,1009.83
2017-08-03T06:47:53.608Z,1009.78
2017-08-03T06:48:34.509Z,1009.78
2017-08-03T06:49:15.407Z,1009.74
2017-08-03T06:49:56.312Z,1009.75
2017-08-03T06:50:37.245Z,1009.71
2017-08-03T06:51:18.136Z,1009.74
2017-08-03T06:51:59.041Z,1009.74
2017-08-03T06:52:39.937Z,1009.77
2017-08-03T06:53:20.838Z,1009.78
2017-08-03T06:54:01.741Z,1009.76
2017-08-03T06:54:42.692Z,1009.78
2017-08-03T06:55:23.585Z,1009.75
2017-08-03T06:56:04.486Z,1009.76
2017-08-03T06:56:45.377Z,1009.81
2017-08-03T06:57:26.271Z,1009.77
2017-08-03T06:58:07.171Z,1009.76
2017-08-03T06:58:48.057Z,1009.75
2017-08-03T06:59:28.977Z,1009.73
2017-08-03T07:00:09.873Z,1009.67
2017-08-03T07:00:50.765Z,1009.67
2017-08-03T07:01:31.665Z,1009.64
2017-08-03T07:02:12.603Z,1009.59
2017-08-03T07:02:53.498Z,1009.6
2017-08-03T07:03:34.393Z,1009.59
2017-08-03T07:04:15.324Z,1009.56
2017-08-03T07:04:56.200Z,1009.51
2017-08-03T07:05:37.101Z,1009.48
2017-08-03T07:06:18.003Z,1009.51
2017-08-03T07:06:58.893Z,1009.54
2017-08-03T07:08:32.244Z,1009.58
2017-08-03T07:09:13.135Z,1009.57
2017-08-03T07:09:54.030Z,1009.57
2017-08-03T07:10:34.960Z,1009.62
2017-08-03T07:11:15.846Z,1009.59
2017-08-03T07:11:56.739Z,1009.59
2017-08-03T07:12:37.760Z,1009.62
2017-08-03T07:13:18.656Z,1009.63
2017-08-03T07:13:59.551Z,1009.62
2017-08-03T07:14:40.471Z,1009.59
2017-08-03T07:15:21.391Z,1009.57
2017-08-03T07:16:02.307Z,1009.55
2017-08-03T07:16:43.178Z,1009.53
2017-08-03T07:17:24.064Z,1009.55
2017-08-03T07:18:04.974Z,1009.55
2017-08-03T07:18:45.855Z,1009.49
2017-08-03T07:19:26.747Z,1009.46
2017-08-03T07:20:07.653Z,1009.41
2017-08-03T07:20:48.537Z,1009.35
2017-08-03T07:21:29.434Z,1009.31
2017-08-03T07:22:10.333Z,1009.23
2017-08-03T07:22:51.237Z,1009.2
2017-08-03T07:23:32.120Z,1009.18
2017-08-03T07:24:13.032Z,1009.22
2017-08-03T07:24:53.967Z,1009.27
2017-08-03T07:25:34.873Z,1009.28
2017-08-03T07:26:15.789Z,1009.32
2017-08-03T07:26:56.668Z,1009.33
2017-08-03T07:27:37.580Z,1009.3
2017-08-03T07:28:18.490Z,1009.37
2017-08-03T07:28:59.353Z,1009.31
2017-08-03T07:29:40.249Z,1009.31
2017-08-03T07:30:21.143Z,1009.29
2017-08-03T07:31:02.095Z,1009.23
2017-08-03T07:31:42.983Z,1009.26
2017-08-03T07:32:23.892Z,1009.22
2017-08-03T07:33:04.789Z,1009.19
2017-08-03T07:33:45.678Z,1009.17
2017-08-03T07:34:26.588Z,1009.17
2017-08-03T07:35:07.486Z,1009.14
2017-08-03T07:35:48.389Z,1009.14
2017-08-03T07:36:29.282Z,1009.11
2017-08-03T07:37:10.172Z,1009.16
2017-08-03T07:37:51.100Z,1009.16
2017-08-03T07:38:31.997Z,1009.2
2017-08-03T07:39:12.916Z,1009.23
2017-08-03T07:39:53.810Z,1009.2
2017-08-03T07:40:34.712Z,1009.21
2017-08-03T07:41:15.603Z,1009.23
2017-08-03T07:41:56.508Z,1009.22
2017-08-03T07:42:37.412Z,1009.22
2017-08-03T07:43:18.339Z,1009.2
2017-08-03T07:43:59.223Z,1009.21
2017-08-03T07:44:40.119Z,1009.22
2017-08-03T07:45:21.057Z,1009.18
2017-08-03T07:46:01.936Z,1009.16
2017-08-03T07:46:42.864Z,1009.12
2017-08-03T07:47:23.752Z,1009.16
2017-08-03T07:48:04.634Z,1009.13
2017-08-03T07:48:45.535Z,1009.14
2017-08-03T07:49:26.412Z,1009.15
2017-08-03T07:50:07.295Z,1009.18
2017-08-03T07:50:48.188Z,1009.18
2017-08-03T07:51:29.086Z,1009.16
2017-08-03T07:52:09.954Z,1009.14
2017-08-03T07:52:50.828Z,1009.12
2017-08-03T07:53:31.717Z,1009.09
2017-08-03T07:54:12.616Z,1009.11
2017-08-03T07:54:53.493Z,1009.09
2017-08-03T07:55:34.360Z,1009
2017-08-03T07:56:15.285Z,1008.97
2017-08-03T07:56:56.174Z,1008.94
2017-08-03T07:57:37.039Z,1008.88
2017-08-03T07:58:17.929Z,1008.89
2017-08-03T07:58:58.810Z,1008.9
2017-08-03T07:59:39.686Z,1008.89
2017-08-03T08:00:20.582Z,1008.94
2017-08-03T08:01:01.463Z,1008.96
2017-08-03T08:01:42.351Z,1008.97
2017-08-03T08:02:23.219Z,1009.04
2017-08-03T08:03:04.106Z,1009.12
2017-08-03T08:03:44.976Z,1009.16
2017-08-03T08:04:25.863Z,1009.2
2017-08-03T08:05:06.752Z,1009.21
2017-08-03T08:05:47.632Z,1009.21
2017-08-03T08:06:28.496Z,1009.27
2017-08-03T08:07:09.417Z,1009.23
2017-08-03T08:07:50.295Z,1009.24
2017-08-03T08:08:31.193Z,1009.19
2017-08-03T08:09:12.081Z,1009.13
2017-08-03T08:09:52.951Z,1009.11
2017-08-03T08:10:33.831Z,1009.09
2017-08-03T08:11:14.716Z,1009.05
2017-08-03T08:11:55.615Z,1009.04
2017-08-03T08:12:36.520Z,1009.04
2017-08-03T08:13:17.401Z,1009.06
2017-08-03T08:13:58.422Z,1009.06
2017-08-03T08:14:39.271Z,1009.14
2017-08-03T08:15:20.154Z,1009.14
2017-08-03T08:16:01.040Z,1009.16
2017-08-03T08:16:41.931Z,1009.13
2017-08-03T08:17:22.815Z,1009.08
2017-08-03T08:18:03.711Z,1009.04
2017-08-03T08:18:44.581Z,1009.06
2017-08-03T08:19:25.462Z,1009.03
2017-08-03T08:20:06.341Z,1009.04
2017-08-03T08:20:47.215Z,1009.05
2017-08-03T08:21:28.136Z,1009